createdAt,value
2018-06-29T00:01:15.911Z,2.60
2018-06-29T00:03:43.995Z,2.60
2018-06-29T00:06:11.877Z,2.40
2018-06-29T00:08:39.958Z,3.17
2018-06-29T00:11:07.835Z,2.50
2018-06-29T00:13:35.903Z,3.00
2018-06-29T00:16:03.983Z,2.20
2018-06-29T00:18:32.061Z,2.30
2018-06-29T00:21:00.132Z,2.50
2018-06-29T00:23:28.195Z,2.67
2018-06-29T00:25:56.316Z,2.53
2018-06-29T00:28:24.406Z,2.33
2018-06-29T00:30:52.591Z,2.53
2018-06-29T00:33:20.677Z,2.43
2018-06-29T00:35:48.758Z,2.70
2018-06-29T00:38:16.863Z,1.87
2018-06-29T00:40:44.964Z,2.23
2018-06-29T00:43:13.034Z,2.43
2018-06-29T00:45:41.103Z,2.53
2018-06-29T00:48:09.192Z,2.30
2018-06-29T00:50:37.254Z,2.70
2018-06-29T00:53:05.411Z,2.50
2018-06-29T00:55:33.551Z,2.60
2018-06-29T00:58:01.651Z,2.30
2018-06-29T01:00:29.711Z,2.00
2018-06-29T01:02:57.779Z,2.57
2018-06-29T01:05:25.839Z,2.40
2018-06-29T01:07:53.941Z,3.00
2018-06-29T01:10:22.029Z,3.00
2018-06-29T01:12:50.120Z,2.77
2018-06-29T01:15:18.222Z,2.30
2018-06-29T01:17:46.282Z,2.40
2018-06-29T01:20:14.150Z,2.03
2018-06-29T01:22:42.223Z,2.70
2018-06-29T01:25:10.314Z,2.80
2018-06-29T01:27:38.387Z,2.63
2018-06-29T01:30:06.818Z,2.50
2018-06-29T01:32:34.885Z,3.13
2018-06-29T01:35:02.972Z,2.80
2018-06-29T01:37:31.063Z,3.57
2018-06-29T01:39:59.010Z,3.20
2018-06-29T01:42:27.117Z,3.40
2018-06-29T01:44:55.187Z,3.20
2018-06-29T01:47:23.263Z,3.30
2018-06-29T01:49:51.111Z,2.80
2018-06-29T01:52:19.340Z,3.70
2018-06-29T01:54:47.295Z,3.20
2018-06-29T01:57:15.379Z,2.93
2018-06-29T01:59:43.454Z,2.83
2018-06-29T02:02:11.539Z,2.90
2018-06-29T02:04:39.638Z,2.90
2018-06-29T02:07:07.707Z,3.40
2018-06-29T02:09:35.798Z,2.97
2018-06-29T02:12:03.874Z,3.13
2018-06-29T02:14:31.978Z,3.70
2018-06-29T02:17:00.119Z,3.40
2018-06-29T02:19:28.170Z,3.67
2018-06-29T02:21:56.263Z,3.70
2018-06-29T02:24:24.359Z,3.77
2018-06-29T02:26:52.442Z,3.67
2018-06-29T02:29:20.561Z,3.30
2018-06-29T02:31:48.628Z,3.20
2018-06-29T02:34:16.718Z,4.40
2018-06-29T02:36:44.832Z,3.53
2018-06-29T02:39:13.665Z,3.73
2018-06-29T02:41:42.276Z,3.90
2018-06-29T02:44:10.351Z,3.70
2018-06-29T02:46:38.432Z,3.60
2018-06-29T02:49:06.680Z,4.30
2018-06-29T02:51:35.217Z,3.40
2018-06-29T02:54:03.444Z,3.57
2018-06-29T02:56:31.552Z,3.23
2018-06-29T02:58:59.623Z,3.70
2018-06-29T03:01:27.719Z,3.50
2018-06-29T03:03:55.839Z,3.37
2018-06-29T03:06:23.940Z,3.40
2018-06-29T03:08:52.031Z,3.37
2018-06-29T03:11:20.141Z,4.10
2018-06-29T03:13:48.236Z,4.00
2018-06-29T03:16:16.332Z,4.13
2018-06-29T03:18:44.448Z,3.50
2018-06-29T03:21:12.567Z,3.50
2018-06-29T03:23:40.851Z,3.67
2018-06-29T03:26:09.144Z,3.63
2018-06-29T03:28:37.243Z,4.07
2018-06-29T03:31:05.373Z,3.30
2018-06-29T03:33:33.472Z,3.50
2018-06-29T03:36:01.567Z,3.90
2018-06-29T03:38:29.673Z,3.70
2018-06-29T03:40:57.784Z,3.87
2018-06-29T03:43:25.895Z,3.93
2018-06-29T03:45:54.016Z,3.27
2018-06-29T03:48:22.102Z,3.83
2018-06-29T03:50:50.196Z,3.63
2018-06-29T03:53:18.327Z,3.83
2018-06-29T03:55:46.413Z,3.53
2018-06-29T03:58:14.511Z,3.63
2018-06-29T04:00:42.599Z,3.80
2018-06-29T04:03:10.725Z,2.87
2018-06-29T04:05:38.791Z,3.00
2018-06-29T04:08:06.887Z,3.90
2018-06-29T04:10:35.004Z,3.07
2018-06-29T04:13:03.123Z,3.60
2018-06-29T04:15:31.261Z,3.20
2018-06-29T04:17:59.325Z,2.97
2018-06-29T04:20:27.204Z,3.60
2018-06-29T04:22:55.329Z,3.30
2018-06-29T04:25:23.455Z,4.30
2018-06-29T04:27:51.564Z,3.40
2018-06-29T04:30:19.689Z,4.07
2018-06-29T04:32:47.832Z,3.60
2018-06-29T04:35:15.891Z,3.60
2018-06-29T04:37:43.979Z,3.40
2018-06-29T04:40:12.102Z,4.50
2018-06-29T04:42:40.195Z,3.40
2018-06-29T04:45:08.091Z,3.60
2018-06-29T04:47:36.187Z,3.13
2018-06-29T04:50:04.247Z,3.63
2018-06-29T04:52:32.341Z,3.00
2018-06-29T04:55:00.460Z,3.23
2018-06-29T04:57:28.556Z,3.23
2018-06-29T04:59:56.663Z,3.43
2018-06-29T05:02:24.548Z,3.50
2018-06-29T05:04:52.643Z,3.47
2018-06-29T05:07:20.768Z,3.03
2018-06-29T05:09:48.662Z,3.77
2018-06-29T05:12:16.772Z,3.10
2018-06-29T05:14:44.867Z,2.90
2018-06-29T05:17:12.964Z,3.33
2018-06-29T05:19:41.056Z,3.00
2018-06-29T05:22:09.178Z,3.57
2018-06-29T05:24:37.268Z,3.10
2018-06-29T05:27:05.375Z,4.20
2018-06-29T05:29:33.503Z,2.60
2018-06-29T05:32:01.631Z,3.77
2018-06-29T05:34:29.732Z,3.33
2018-06-29T05:36:57.864Z,3.47
2018-06-29T05:39:25.959Z,3.00
2018-06-29T05:41:54.152Z,3.50
2018-06-29T05:44:22.232Z,3.60
2018-06-29T05:46:50.370Z,2.40
2018-06-29T05:49:18.513Z,2.83
2018-06-29T05:51:46.665Z,3.40
2018-06-29T05:54:14.807Z,2.73
2018-06-29T05:56:42.956Z,2.80
2018-06-29T05:59:11.071Z,3.00
2018-06-29T06:01:39.236Z,3.30
2018-06-29T06:04:07.338Z,2.90
2018-06-29T06:06:35.471Z,3.70
2018-06-29T06:09:05.573Z,3.40
2018-06-29T06:11:33.679Z,3.00
2018-06-29T06:14:01.807Z,3.70
2018-06-29T06:16:29.921Z,2.80
2018-06-29T06:19:09.580Z,3.03
2018-06-29T06:21:38.651Z,2.90
2018-06-29T06:24:06.736Z,2.47
2018-06-29T06:26:34.858Z,2.80
2018-06-29T06:29:02.947Z,3.20
2018-06-29T06:31:31.045Z,3.50
2018-06-29T06:33:59.164Z,4.00
2018-06-29T06:36:27.284Z,3.20
2018-06-29T06:38:55.384Z,2.87
2018-06-29T06:41:23.480Z,2.73
2018-06-29T06:43:51.713Z,2.77
2018-06-29T06:46:19.660Z,4.13
2018-06-29T06:48:47.754Z,3.73
2018-06-29T06:51:15.876Z,2.40
2018-06-29T06:53:44.106Z,3.00
2018-06-29T06:56:11.963Z,3.30
2018-06-29T06:58:40.047Z,2.80
2018-06-29T07:01:08.183Z,2.63
2018-06-29T07:03:36.284Z,2.73
2018-06-29T07:06:04.388Z,2.63
2018-06-29T07:08:32.455Z,2.70
2018-06-29T07:11:00.584Z,2.40
2018-06-29T07:13:28.685Z,3.47
2018-06-29T07:15:56.800Z,2.90
2018-06-29T07:18:24.908Z,2.63
2018-06-29T07:20:53.036Z,2.50
2018-06-29T07:23:21.136Z,2.27
2018-06-29T07:25:49.252Z,2.90
2018-06-29T07:28:17.164Z,2.93
2018-06-29T07:30:45.255Z,2.50
2018-06-29T07:33:13.351Z,2.83
2018-06-29T07:35:41.480Z,2.40
2018-06-29T07:38:09.696Z,3.00
2018-06-29T07:40:37.823Z,3.00
2018-06-29T07:43:05.916Z,2.90
2018-06-29T07:45:34.041Z,3.53
2018-06-29T07:48:02.158Z,2.93
2018-06-29T07:50:30.254Z,3.23
2018-06-29T07:52:58.431Z,3.03
2018-06-29T07:55:26.451Z,2.73
2018-06-29T07:57:54.657Z,2.80
2018-06-29T08:00:22.775Z,2.60
2018-06-29T08:02:50.896Z,2.67
2018-06-29T08:05:19.000Z,2.90
2018-06-29T08:07:47.100Z,2.60
2018-06-29T08:10:15.186Z,3.57
2018-06-29T08:12:43.276Z,3.00
2018-06-29T08:15:11.419Z,2.20
2018-06-29T08:17:39.547Z,2.83
2018-06-29T08:20:07.647Z,3.37
2018-06-29T08:22:35.752Z,2.93
2018-06-29T08:25:13.896Z,2.77
2018-06-29T08:27:42.207Z,3.60
2018-06-29T08:30:11.221Z,3.47
2018-06-29T08:32:39.336Z,3.00
2018-06-29T08:35:08.120Z,3.27
2018-06-29T08:37:36.740Z,3.33
2018-06-29T08:40:05.498Z,2.63
2018-06-29T08:42:33.583Z,2.93
2018-06-29T08:45:01.704Z,3.00
2018-06-29T08:47:29.805Z,3.13
2018-06-29T08:49:57.931Z,3.00
2018-06-29T08:52:26.101Z,3.50
2018-06-29T08:54:54.263Z,3.30
2018-06-29T08:57:22.331Z,3.30
2018-06-29T08:59:50.446Z,3.33
2018-06-29T09:02:18.563Z,2.80
2018-06-29T09:04:46.479Z,2.90
2018-06-29T09:07:14.560Z,3.30
2018-06-29T09:09:42.667Z,2.63
2018-06-29T09:12:10.748Z,3.10
2018-06-29T09:14:38.861Z,3.20
2018-06-29T09:17:06.947Z,2.93
2018-06-29T09:19:35.059Z,3.00
2018-06-29T09:22:03.159Z,2.83
2018-06-29T09:24:31.255Z,3.33
2018-06-29T09:26:59.355Z,2.57
2018-06-29T09:29:27.459Z,2.70
2018-06-29T09:31:55.568Z,3.13
2018-06-29T09:34:23.664Z,2.73
2018-06-29T09:36:51.747Z,3.33
2018-06-29T09:39:19.877Z,2.60
2018-06-29T09:41:47.978Z,3.00
2018-06-29T09:44:16.099Z,2.83
2018-06-29T09:46:44.228Z,2.90
2018-06-29T09:49:12.341Z,1.97
2018-06-29T09:51:40.419Z,1.77
2018-06-29T09:54:08.709Z,1.30
2018-06-29T09:56:36.737Z,1.90
2018-06-29T09:59:05.412Z,1.77
2018-06-29T10:01:33.505Z,1.60
2018-06-29T10:04:01.624Z,1.63
2018-06-29T10:06:29.733Z,1.50
2018-06-29T10:08:57.807Z,1.40
2018-06-29T10:11:25.920Z,1.50
2018-06-29T10:13:54.016Z,1.60
2018-06-29T10:16:22.143Z,1.63
2018-06-29T10:18:50.251Z,2.10
2018-06-29T10:21:18.351Z,1.90
2018-06-29T10:23:46.460Z,2.40
2018-06-29T10:26:14.764Z,2.63
2018-06-29T10:28:42.936Z,2.90
2018-06-29T10:31:11.040Z,2.77
2018-06-29T10:33:39.139Z,2.60
2018-06-29T10:36:07.299Z,3.03
2018-06-29T10:38:35.350Z,2.53
2018-06-29T10:41:03.452Z,2.00
2018-06-29T10:43:31.538Z,2.73
2018-06-29T10:45:59.634Z,3.20
2018-06-29T10:48:27.736Z,2.77
2018-06-29T10:50:55.827Z,2.83
2018-06-29T10:53:23.913Z,3.00
2018-06-29T10:55:52.031Z,2.90
2018-06-29T10:58:20.123Z,3.20
2018-06-29T11:00:48.363Z,2.73
2018-06-29T11:03:16.431Z,2.80
2018-06-29T11:05:44.544Z,3.67
2018-06-29T11:08:12.442Z,3.30
2018-06-29T11:10:40.319Z,3.20
2018-06-29T11:13:08.415Z,2.63
2018-06-29T11:15:36.512Z,3.30
2018-06-29T11:18:04.375Z,2.90
2018-06-29T11:20:32.480Z,2.83
2018-06-29T11:23:00.595Z,3.30
2018-06-29T11:25:28.704Z,2.67
2018-06-29T11:27:56.825Z,3.33
2018-06-29T11:30:24.981Z,2.60
2018-06-29T11:32:53.011Z,2.63
2018-06-29T11:35:21.092Z,2.80
2018-06-29T11:37:48.963Z,3.00
2018-06-29T11:40:17.049Z,2.80
2018-06-29T11:42:45.147Z,2.93
2018-06-29T11:45:13.034Z,2.73
2018-06-29T11:47:41.123Z,2.57
2018-06-29T11:50:09.282Z,2.40
2018-06-29T11:52:37.368Z,3.47
2018-06-29T11:55:05.263Z,2.47
2018-06-29T11:57:33.336Z,3.13
2018-06-29T12:00:01.450Z,2.87
2018-06-29T12:02:29.332Z,2.27
2018-06-29T12:04:57.444Z,3.40
2018-06-29T12:07:25.339Z,3.10
2018-06-29T12:09:53.455Z,3.00
2018-06-29T12:12:21.603Z,3.30
2018-06-29T12:14:49.714Z,2.90
2018-06-29T12:17:17.801Z,2.70
2018-06-29T12:19:45.889Z,3.00
2018-06-29T12:22:13.992Z,2.90
2018-06-29T12:24:42.084Z,2.70
2018-06-29T12:27:10.184Z,2.57
2018-06-29T12:29:38.288Z,2.87
2018-06-29T12:32:06.386Z,2.50
2018-06-29T12:34:43.597Z,2.87
2018-06-29T12:37:11.731Z,3.23
2018-06-29T12:39:39.872Z,2.93
2018-06-29T12:42:08.020Z,2.87
2018-06-29T12:44:36.112Z,2.90
2018-06-29T12:47:04.210Z,3.70
2018-06-29T12:49:32.335Z,2.97
2018-06-29T12:52:00.423Z,2.70
2018-06-29T12:54:28.503Z,3.30
2018-06-29T12:56:56.399Z,3.93
2018-06-29T13:01:59.172Z,3.77
2018-06-29T13:04:27.259Z,3.23
2018-06-29T13:06:55.371Z,3.73
2018-06-29T13:09:23.484Z,3.80
2018-06-29T13:11:51.604Z,3.33
2018-06-29T13:14:19.724Z,3.50
2018-06-29T13:16:47.622Z,3.40
2018-06-29T13:19:15.752Z,4.10
2018-06-29T13:21:43.911Z,3.40
2018-06-29T13:24:11.963Z,3.07
2018-06-29T13:26:40.068Z,3.50
2018-06-29T13:29:08.182Z,3.37
2018-06-29T13:31:36.312Z,3.23
2018-06-29T13:34:04.428Z,3.10
2018-06-29T13:36:32.515Z,3.50
2018-06-29T13:39:00.606Z,3.80
2018-06-29T13:41:28.761Z,3.23
2018-06-29T13:43:56.876Z,3.43
2018-06-29T13:46:24.947Z,3.20
2018-06-29T13:48:53.055Z,3.20
2018-06-29T13:51:21.155Z,3.43
2018-06-29T13:53:49.260Z,3.10
2018-06-29T13:56:17.364Z,2.73
2018-06-29T13:58:45.466Z,3.30
2018-06-29T14:01:13.348Z,2.97
2018-06-29T14:03:41.440Z,3.20
2018-06-29T14:06:09.575Z,3.47
2018-06-29T14:08:37.716Z,3.27
2018-06-29T14:11:05.814Z,3.13
2018-06-29T14:13:33.921Z,3.30
2018-06-29T14:16:02.014Z,3.30
2018-06-29T14:18:30.092Z,3.27
2018-06-29T14:20:58.205Z,2.80
2018-06-29T14:23:26.328Z,3.00
2018-06-29T14:25:54.431Z,3.10
2018-06-29T14:28:22.539Z,2.70
2018-06-29T14:30:57.013Z,2.90
2018-06-29T14:33:25.095Z,2.93
2018-06-29T14:35:53.226Z,2.77
2018-06-29T14:38:21.335Z,3.20
2018-06-29T14:40:49.554Z,3.10
2018-06-29T14:43:17.619Z,2.70
2018-06-29T14:45:45.712Z,3.63
2018-06-29T14:48:13.888Z,3.17
2018-06-29T14:50:41.987Z,3.47
2018-06-29T14:53:10.103Z,3.00
2018-06-29T14:55:38.208Z,2.73
2018-06-29T14:58:06.327Z,4.17
2018-06-29T15:00:34.437Z,2.90
2018-06-29T15:03:02.636Z,3.30
2018-06-29T15:05:30.681Z,3.37
2018-06-29T15:07:58.776Z,3.53
2018-06-29T15:10:26.876Z,3.10
2018-06-29T15:12:54.986Z,3.00
2018-06-29T15:15:23.080Z,3.20
2018-06-29T15:17:51.182Z,3.63
2018-06-29T15:20:19.364Z,2.87
2018-06-29T15:22:49.531Z,2.90
2018-06-29T15:25:18.367Z,2.83
2018-06-29T15:27:46.453Z,3.00
2018-06-29T15:30:14.572Z,3.70
2018-06-29T15:32:42.796Z,3.33
2018-06-29T15:35:10.928Z,2.90
2018-06-29T15:37:39.034Z,3.17
2018-06-29T15:40:08.284Z,3.40
2018-06-29T15:42:36.379Z,3.37
2018-06-29T15:45:04.996Z,3.70
2018-06-29T15:47:33.103Z,3.03
2018-06-29T15:50:01.214Z,3.40
2018-06-29T15:52:29.324Z,2.50
2018-06-29T15:54:58.231Z,2.50
2018-06-29T15:57:26.311Z,3.03
2018-06-29T15:59:54.440Z,3.17
2018-06-29T16:02:22.533Z,3.37
2018-06-29T16:04:51.962Z,2.80
2018-06-29T16:07:20.059Z,3.40
2018-06-29T16:09:48.155Z,3.30
2018-06-29T16:12:23.954Z,2.80
2018-06-29T16:14:53.260Z,3.20
2018-06-29T16:17:21.335Z,2.30
2018-06-29T16:19:49.475Z,2.37
2018-06-29T16:22:17.625Z,2.37
2018-06-29T16:24:45.832Z,2.23
2018-06-29T16:27:13.936Z,2.50
2018-06-29T16:29:42.031Z,2.73
2018-06-29T16:32:10.132Z,1.83
2018-06-29T16:34:38.324Z,1.97
2018-06-29T16:37:06.412Z,1.80
2018-06-29T16:39:34.507Z,1.60
2018-06-29T16:42:02.601Z,1.43
2018-06-29T16:44:30.736Z,1.60
2018-06-29T16:46:58.824Z,1.30
2018-06-29T16:49:26.916Z,1.47
2018-06-29T16:51:55.005Z,2.33
2018-06-29T16:54:23.092Z,1.97
2018-06-29T16:56:51.160Z,1.80
2018-06-29T16:59:19.248Z,1.90
2018-06-29T17:01:47.352Z,1.90
2018-06-29T17:04:15.460Z,2.87
2018-06-29T17:06:43.571Z,2.40
2018-06-29T17:09:11.672Z,3.03
2018-06-29T17:11:39.779Z,3.03
2018-06-29T17:14:07.876Z,3.20
2018-06-29T17:16:35.968Z,2.57
2018-06-29T17:19:04.078Z,3.43
2018-06-29T17:21:32.192Z,2.73
2018-06-29T17:24:00.357Z,3.60
2018-06-29T17:26:28.428Z,3.37
2018-06-29T17:28:56.523Z,3.57
2018-06-29T17:31:24.408Z,3.10
2018-06-29T17:33:52.623Z,3.00
2018-06-29T17:36:20.639Z,3.20
2018-06-29T17:38:48.735Z,3.70
2018-06-29T17:41:16.836Z,2.70
2018-06-29T17:43:44.957Z,3.30
2018-06-29T17:46:13.063Z,2.87
2018-06-29T17:48:41.231Z,3.10
2018-06-29T17:51:09.361Z,3.13
2018-06-29T17:53:37.338Z,2.80
2018-06-29T17:56:05.412Z,2.80
2018-06-29T17:58:33.516Z,3.07
2018-06-29T18:01:01.627Z,2.50
2018-06-29T18:03:29.780Z,2.70
2018-06-29T18:05:57.865Z,3.30
2018-06-29T18:08:25.976Z,2.83
2018-06-29T18:10:54.081Z,3.30
2018-06-29T18:13:22.244Z,3.10
2018-06-29T18:15:50.259Z,2.70
2018-06-29T18:18:18.348Z,2.70
2018-06-29T18:20:46.462Z,2.73
2018-06-29T18:23:14.567Z,2.80
2018-06-29T18:25:42.687Z,3.17
2018-06-29T18:28:11.104Z,2.97
2018-06-29T18:30:39.216Z,3.10
2018-06-29T18:33:11.560Z,3.13
2018-06-29T18:35:39.636Z,3.30
2018-06-29T18:38:07.748Z,2.90
2018-06-29T18:40:35.851Z,3.27
2018-06-29T18:43:03.991Z,2.87
2018-06-29T18:45:32.115Z,3.37
2018-06-29T18:48:00.240Z,3.40
2018-06-29T18:50:28.452Z,3.50
2018-06-29T18:52:56.549Z,3.13
2018-06-29T18:55:24.699Z,3.10
2018-06-29T18:57:52.812Z,3.27
2018-06-29T19:00:20.997Z,2.70
2018-06-29T19:02:48.886Z,3.40
2018-06-29T19:05:16.985Z,2.73
2018-06-29T19:07:44.884Z,3.20
2018-06-29T19:10:12.767Z,2.67
2018-06-29T19:12:40.860Z,3.20
2018-06-29T19:15:09.007Z,3.03
2018-06-29T19:17:37.090Z,3.30
2018-06-29T19:20:05.236Z,2.60
2018-06-29T19:22:33.324Z,3.13
2018-06-29T19:25:01.427Z,2.67
2018-06-29T19:27:29.563Z,2.90
2018-06-29T19:29:57.641Z,2.83
2018-06-29T19:32:25.728Z,2.73
2018-06-29T19:34:53.853Z,2.83
2018-06-29T19:37:21.955Z,3.30
2018-06-29T19:39:50.058Z,2.73
2018-06-29T19:42:18.171Z,3.30
2018-06-29T19:44:46.315Z,3.03
2018-06-29T19:47:14.467Z,2.40
2018-06-29T19:49:42.595Z,3.03
2018-06-29T19:52:10.728Z,3.17
2018-06-29T19:54:38.647Z,2.60
2018-06-29T19:57:06.996Z,3.90
2018-06-29T19:59:35.096Z,3.23
2018-06-29T20:02:03.221Z,2.97
2018-06-29T20:04:31.135Z,2.70
2018-06-29T20:06:59.212Z,3.57
2018-06-29T20:09:27.129Z,3.30
2018-06-29T20:11:55.237Z,3.23
2018-06-29T20:14:23.360Z,2.67
2018-06-29T20:16:51.430Z,2.90
2018-06-29T20:19:19.532Z,3.70
2018-06-29T20:21:47.630Z,3.13
2018-06-29T20:24:15.740Z,4.10
2018-06-29T20:26:43.860Z,3.40
2018-06-29T20:29:11.976Z,3.20
2018-06-29T20:31:39.931Z,3.93
2018-06-29T20:34:08.084Z,4.00
2018-06-29T20:36:35.971Z,3.37
2018-06-29T20:39:06.180Z,4.30
2018-06-29T20:41:34.255Z,3.60
2018-06-29T20:44:02.365Z,3.67
2018-06-29T20:46:30.460Z,3.43
2018-06-29T20:48:58.573Z,3.83
2018-06-29T20:51:26.677Z,3.87
2018-06-29T20:53:54.866Z,3.27
2018-06-29T20:56:22.922Z,3.77
2018-06-29T20:58:51.040Z,3.43
2018-06-29T21:01:19.127Z,3.77
2018-06-29T21:03:47.209Z,3.20
2018-06-29T21:06:15.312Z,3.30
2018-06-29T21:08:43.439Z,3.93
2018-06-29T21:11:11.587Z,3.40
2018-06-29T21:13:39.728Z,3.70
2018-06-29T21:16:07.834Z,3.10
2018-06-29T21:18:35.906Z,3.63
2018-06-29T21:21:03.992Z,3.20
2018-06-29T21:23:32.136Z,3.23
2018-06-29T21:26:00.239Z,3.80
2018-06-29T21:28:28.413Z,3.50
2018-06-29T21:30:56.516Z,3.53
2018-06-29T21:33:24.602Z,3.00
2018-06-29T21:35:52.716Z,3.07
2018-06-29T21:38:20.799Z,3.70
2018-06-29T21:40:49.117Z,3.30
2018-06-29T21:43:17.889Z,3.30
2018-06-29T21:45:45.968Z,3.40
2018-06-29T21:48:13.836Z,3.60
2018-06-29T21:50:41.932Z,3.80
2018-06-29T21:53:10.020Z,3.63
2018-06-29T21:55:38.168Z,3.03
2018-06-29T21:58:07.187Z,3.43
2018-06-29T22:00:40.239Z,2.83
2018-06-29T22:03:09.051Z,3.13
2018-06-29T22:05:37.923Z,3.17
2018-06-29T22:08:06.641Z,3.10
2018-06-29T22:10:34.768Z,3.43
2018-06-29T22:15:37.480Z,3.20
2018-06-29T22:18:05.785Z,3.00
2018-06-29T22:20:33.887Z,3.00
2018-06-29T22:23:01.972Z,3.13
2018-06-29T22:25:29.848Z,2.80
2018-06-29T22:27:57.983Z,3.60
2018-06-29T22:30:26.055Z,3.10
2018-06-29T22:32:54.018Z,2.50
2018-06-29T22:35:22.119Z,2.93
2018-06-29T22:37:50.228Z,3.83
2018-06-29T22:40:18.437Z,3.40
2018-06-29T22:42:46.515Z,4.30
2018-06-29T22:45:14.623Z,3.77
2018-06-29T22:47:42.692Z,3.40
2018-06-29T22:50:10.976Z,3.50
2018-06-29T22:52:39.128Z,3.07
2018-06-29T22:55:07.228Z,2.67
2018-06-29T22:57:35.331Z,2.80
2018-06-29T23:00:03.455Z,3.03
2018-06-29T23:02:31.559Z,3.07
2018-06-29T23:04:59.686Z,3.07
2018-06-29T23:07:27.799Z,2.70
2018-06-29T23:09:55.916Z,2.70
2018-06-29T23:12:30.703Z,2.97
2018-06-29T23:14:58.847Z,3.13
2018-06-29T23:17:26.954Z,2.97
2018-06-29T23:19:55.039Z,2.70
2018-06-29T23:22:23.131Z,3.00
2018-06-29T23:24:51.277Z,2.60
2018-06-29T23:27:19.532Z,2.33
2018-06-29T23:29:47.636Z,2.97
2018-06-29T23:32:22.298Z,2.90
2018-06-29T23:34:50.419Z,3.03
2018-06-29T23:37:18.536Z,3.13
2018-06-29T23:39:46.631Z,2.80
2018-06-29T23:42:14.756Z,2.77
2018-06-29T23:44:42.926Z,2.63
2018-06-29T23:47:11.043Z,2.80
2018-06-29T23:49:39.140Z,2.87
2018-06-29T23:52:07.287Z,2.90
2018-06-29T23:54:35.376Z,2.57
2018-06-29T23:57:03.502Z,2.50
2018-06-29T23:59:31.390Z,2.43
